createdAt,value
2024-01-06T00:00:40.892Z,1.38
2024-01-06T00:03:26.291Z,1.38
2024-01-06T00:06:15.916Z,1.30
2024-01-06T00:09:01.935Z,1.30
2024-01-06T00:11:47.684Z,1.15
2024-01-06T00:14:32.988Z,1.30
2024-01-06T00:17:18.421Z,1.90
2024-01-06T00:20:05.756Z,1.55
2024-01-06T00:22:51.423Z,1.63
2024-01-06T00:25:36.806Z,1.80
2024-01-06T00:28:22.332Z,1.85
2024-01-06T00:31:08.261Z,1.60
2024-01-06T00:33:54.221Z,1.80
2024-01-06T00:36:39.860Z,1.50
2024-01-06T00:39:25.307Z,1.45
2024-01-06T00:42:10.723Z,1.33
2024-01-06T00:44:56.042Z,1.50
2024-01-06T00:47:41.626Z,1.58
2024-01-06T00:50:27.395Z,1.48
2024-01-06T00:53:13.804Z,2.10
2024-01-06T00:55:59.224Z,2.33
2024-01-06T00:58:44.601Z,2.80
2024-01-06T01:01:30.198Z,2.83
2024-01-06T01:04:16.092Z,2.60
2024-01-06T01:07:01.857Z,2.03
2024-01-06T01:09:47.668Z,2.30
2024-01-06T01:12:33.434Z,2.25
2024-01-06T01:15:19.095Z,2.10
2024-01-06T01:18:04.820Z,1.80
2024-01-06T01:20:50.321Z,1.75
2024-01-06T01:23:36.025Z,1.88
2024-01-06T01:26:21.452Z,1.52
2024-01-06T01:29:07.362Z,1.67
2024-01-06T01:31:53.058Z,2.15
2024-01-06T01:34:38.792Z,1.65
2024-01-06T01:37:24.523Z,1.88
2024-01-06T01:40:10.269Z,2.03
2024-01-06T01:42:55.877Z,1.80
2024-01-06T01:45:41.279Z,1.60
2024-01-06T01:48:27.574Z,4.75
2024-01-06T01:51:13.562Z,2.10
2024-01-06T01:53:59.924Z,2.20
2024-01-06T01:56:45.440Z,1.77
2024-01-06T01:59:30.732Z,1.90
2024-01-06T02:02:18.128Z,1.70
2024-01-06T02:05:03.813Z,1.70
2024-01-06T02:07:51.995Z,1.95
2024-01-06T02:10:37.616Z,1.70
2024-01-06T02:13:23.940Z,1.88
2024-01-06T02:16:09.448Z,1.92
2024-01-06T02:18:54.978Z,1.95
2024-01-06T02:21:44.637Z,2.03
2024-01-06T02:24:30.454Z,1.98
2024-01-06T02:27:15.966Z,2.00
2024-01-06T02:30:02.259Z,1.95
2024-01-06T02:32:47.652Z,2.28
2024-01-06T02:35:33.365Z,2.20
2024-01-06T02:38:19.056Z,2.30
2024-01-06T02:41:04.700Z,2.55
2024-01-06T02:43:50.219Z,2.10
2024-01-06T02:46:35.501Z,2.20
2024-01-06T02:49:20.896Z,2.78
2024-01-06T02:52:06.664Z,6.30
2024-01-06T02:54:52.044Z,7.22
2024-01-06T02:57:39.694Z,3.10
2024-01-06T03:00:26.564Z,2.45
2024-01-06T03:03:12.128Z,2.40
2024-01-06T03:05:57.748Z,2.45
2024-01-06T03:08:43.295Z,2.65
2024-01-06T03:11:28.649Z,2.22
2024-01-06T03:14:14.324Z,2.00
2024-01-06T03:16:59.629Z,2.15
2024-01-06T03:19:46.046Z,2.22
2024-01-06T03:22:31.565Z,2.40
2024-01-06T03:25:17.037Z,2.20
2024-01-06T03:28:02.615Z,1.77
2024-01-06T03:30:48.344Z,2.13
2024-01-06T03:33:34.315Z,2.38
2024-01-06T03:36:19.576Z,2.10
2024-01-06T03:39:05.185Z,2.35
2024-01-06T03:41:50.786Z,2.22
2024-01-06T03:44:36.132Z,2.03
2024-01-06T03:47:21.720Z,2.10
2024-01-06T03:50:07.946Z,2.20
2024-01-06T03:52:53.279Z,2.10
2024-01-06T03:55:38.736Z,2.30
2024-01-06T03:58:24.398Z,2.00
2024-01-06T04:01:10.183Z,2.10
2024-01-06T04:03:55.863Z,2.33
2024-01-06T04:06:41.752Z,2.47
2024-01-06T04:09:27.143Z,2.50
2024-01-06T04:12:12.679Z,2.30
2024-01-06T04:14:58.143Z,2.22
2024-01-06T04:17:44.173Z,2.28
2024-01-06T04:20:30.669Z,2.20
2024-01-06T04:23:16.341Z,2.40
2024-01-06T04:26:02.551Z,2.10
2024-01-06T04:28:47.966Z,2.10
2024-01-06T04:31:33.403Z,2.40
2024-01-06T04:34:19.441Z,2.38
2024-01-06T04:37:05.352Z,2.40
2024-01-06T04:39:51.312Z,2.22
2024-01-06T04:42:37.033Z,2.20
2024-01-06T04:45:25.050Z,2.40
2024-01-06T04:48:11.026Z,2.75
2024-01-06T04:50:56.937Z,2.50
2024-01-06T04:53:42.241Z,2.60
2024-01-06T04:56:27.703Z,2.53
2024-01-06T04:59:13.196Z,2.25
2024-01-06T05:01:59.616Z,2.65
2024-01-06T05:04:45.319Z,2.65
2024-01-06T05:07:30.640Z,2.85
2024-01-06T05:10:16.123Z,2.35
2024-01-06T05:13:01.611Z,2.80
2024-01-06T05:15:46.972Z,2.70
2024-01-06T05:18:32.455Z,2.72
2024-01-06T05:21:18.236Z,2.90
2024-01-06T05:24:04.317Z,2.05
2024-01-06T05:26:50.152Z,2.10
2024-01-06T05:29:35.426Z,2.03
2024-01-06T05:32:21.313Z,2.15
2024-01-06T05:35:07.404Z,3.70
2024-01-06T05:37:53.089Z,7.57
2024-01-06T05:40:38.476Z,4.68
2024-01-06T05:43:23.976Z,1.73
2024-01-06T05:46:11.658Z,1.80
2024-01-06T05:48:57.342Z,1.52
2024-01-06T05:51:46.893Z,1.90
2024-01-06T05:54:32.768Z,1.50
2024-01-06T05:57:19.177Z,1.50
2024-01-06T06:00:09.516Z,1.42
2024-01-06T06:02:58.417Z,1.90
2024-01-06T06:05:44.296Z,4.00
2024-01-06T06:08:30.161Z,4.38
2024-01-06T06:11:15.624Z,3.10
2024-01-06T06:14:03.717Z,2.55
2024-01-06T06:16:49.429Z,2.17
2024-01-06T06:19:34.798Z,2.88
2024-01-06T06:22:20.389Z,2.63
2024-01-06T06:25:06.527Z,4.15
2024-01-06T06:27:52.000Z,3.55
2024-01-06T06:30:37.802Z,4.55
2024-01-06T06:33:23.624Z,3.85
2024-01-06T06:36:09.492Z,2.70
2024-01-06T06:38:55.387Z,2.47
2024-01-06T06:41:40.816Z,2.40
2024-01-06T06:44:26.233Z,2.95
2024-01-06T06:47:11.438Z,3.60
2024-01-06T06:49:57.253Z,3.50
2024-01-06T06:52:43.260Z,3.22
2024-01-06T06:55:28.799Z,3.03
2024-01-06T06:58:14.208Z,2.75
2024-01-06T07:00:59.916Z,3.58
2024-01-06T07:03:45.586Z,4.10
2024-01-06T07:06:31.807Z,3.40
2024-01-06T07:09:18.633Z,3.45
2024-01-06T07:12:05.446Z,4.45
2024-01-06T07:14:51.039Z,5.20
2024-01-06T07:17:36.838Z,5.20
2024-01-06T07:20:22.116Z,4.60
2024-01-06T07:23:07.462Z,4.18
2024-01-06T07:25:53.020Z,4.35
2024-01-06T07:28:38.543Z,4.32
2024-01-06T07:31:24.210Z,3.83
2024-01-06T07:34:10.156Z,3.45
2024-01-06T07:36:55.921Z,4.20
2024-01-06T07:39:41.563Z,7.90
2024-01-06T07:42:27.152Z,7.22
2024-01-06T07:45:14.502Z,10.13
2024-01-06T07:48:00.783Z,10.45
2024-01-06T07:50:46.734Z,9.02
2024-01-06T07:53:32.542Z,9.35
2024-01-06T07:56:18.311Z,7.75
2024-01-06T07:59:03.683Z,5.88
2024-01-06T08:01:49.329Z,3.85
2024-01-06T08:04:35.341Z,3.28
2024-01-06T08:07:21.204Z,3.10
2024-01-06T08:10:07.442Z,2.80
2024-01-06T08:12:53.291Z,3.88
2024-01-06T08:15:39.103Z,3.60
2024-01-06T08:18:25.121Z,3.80
2024-01-06T08:21:10.922Z,3.60
2024-01-06T08:23:56.984Z,4.10
2024-01-06T08:26:42.249Z,3.95
2024-01-06T08:29:27.727Z,4.00
2024-01-06T08:32:14.113Z,3.90
2024-01-06T08:34:59.563Z,4.70
2024-01-06T08:37:45.312Z,4.95
2024-01-06T08:40:30.931Z,5.60
2024-01-06T08:43:16.343Z,4.20
2024-01-06T08:46:01.952Z,3.63
2024-01-06T08:48:47.867Z,4.20
2024-01-06T08:51:33.829Z,5.28
2024-01-06T08:54:19.350Z,7.00
2024-01-06T08:57:05.459Z,8.32
2024-01-06T08:59:50.977Z,8.90
2024-01-06T09:02:36.336Z,8.93
2024-01-06T09:05:22.089Z,8.27
2024-01-06T09:08:07.634Z,7.40
2024-01-06T09:10:58.008Z,7.45
2024-01-06T09:13:43.392Z,9.88
2024-01-06T09:16:29.032Z,8.77
2024-01-06T09:19:14.910Z,8.70
2024-01-06T09:22:00.864Z,8.02
2024-01-06T09:24:46.163Z,16.38
2024-01-06T09:27:31.825Z,41.00
2024-01-06T09:30:17.910Z,26.25
2024-01-06T09:33:03.770Z,11.70
2024-01-06T09:35:49.629Z,11.40
2024-01-06T09:38:35.241Z,11.90
2024-01-06T09:41:22.779Z,7.20
2024-01-06T09:44:08.405Z,6.75
2024-01-06T09:46:55.970Z,7.05
2024-01-06T09:49:50.036Z,12.65
2024-01-06T09:52:42.399Z,10.13
2024-01-06T09:55:28.185Z,7.72
2024-01-06T09:58:13.677Z,5.60
2024-01-06T10:01:01.478Z,6.30
2024-01-06T10:03:47.391Z,5.75
2024-01-06T10:06:34.182Z,6.95
2024-01-06T10:09:28.906Z,6.35
2024-01-06T10:12:14.683Z,6.75
2024-01-06T10:15:00.633Z,7.72
2024-01-06T10:17:46.177Z,6.82
2024-01-06T10:20:32.413Z,7.70
2024-01-06T10:23:17.919Z,7.28
2024-01-06T10:26:05.606Z,5.97
2024-01-06T10:28:52.152Z,6.38
2024-01-06T10:31:38.095Z,6.20
2024-01-06T10:34:24.973Z,10.35
2024-01-06T10:37:11.963Z,6.88
2024-01-06T10:40:14.526Z,5.35
2024-01-06T10:43:01.889Z,5.80
2024-01-06T10:45:48.230Z,6.53
2024-01-06T10:48:39.539Z,7.20
2024-01-06T10:51:27.972Z,6.22
2024-01-06T10:54:15.452Z,5.93
2024-01-06T10:57:02.474Z,5.70
2024-01-06T10:59:53.116Z,8.68
2024-01-06T11:02:40.953Z,6.63
2024-01-06T11:05:27.161Z,3.42
2024-01-06T11:08:13.074Z,4.40
2024-01-06T11:10:58.957Z,4.30
2024-01-06T11:13:46.345Z,4.05
2024-01-06T11:16:36.769Z,3.38
2024-01-06T11:19:43.544Z,3.28
2024-01-06T11:22:33.568Z,3.60
2024-01-06T11:25:22.392Z,4.05
2024-01-06T11:28:10.096Z,4.05
2024-01-06T11:31:11.481Z,4.35
2024-01-06T11:33:57.158Z,3.53
2024-01-06T11:36:46.320Z,3.10
2024-01-06T11:39:42.806Z,3.03
2024-01-06T11:42:36.525Z,2.30
2024-01-06T11:45:22.897Z,1.90
2024-01-06T11:48:13.069Z,1.70
2024-01-06T11:51:00.339Z,1.98
2024-01-06T11:53:47.731Z,2.03
2024-01-06T11:56:33.196Z,2.30
2024-01-06T11:59:18.501Z,2.05
2024-01-06T12:02:04.411Z,2.20
2024-01-06T12:04:54.439Z,2.42
2024-01-06T12:07:43.221Z,2.30
2024-01-06T12:10:30.673Z,1.70
2024-01-06T12:13:18.513Z,2.20
2024-01-06T12:16:05.191Z,2.17
2024-01-06T12:18:51.045Z,2.20
2024-01-06T12:21:39.225Z,2.80
2024-01-06T12:24:25.921Z,2.75
2024-01-06T12:27:11.827Z,3.28
2024-01-06T12:29:57.932Z,2.60
2024-01-06T12:32:53.023Z,3.17
2024-01-06T12:35:39.999Z,2.38
2024-01-06T12:38:28.810Z,2.90
2024-01-06T12:41:14.428Z,3.05
2024-01-06T12:44:01.394Z,3.70
2024-01-06T12:46:46.850Z,3.22
2024-01-06T12:49:32.542Z,3.70
2024-01-06T12:52:18.117Z,3.45
2024-01-06T12:55:04.679Z,4.85
2024-01-06T12:57:50.590Z,5.40
2024-01-06T13:00:37.255Z,3.88
2024-01-06T13:03:23.551Z,3.40
2024-01-06T13:06:09.131Z,3.00
2024-01-06T13:08:54.907Z,2.72
2024-01-06T13:11:40.338Z,2.55
2024-01-06T13:14:25.779Z,2.80
2024-01-06T13:17:11.316Z,2.80
2024-01-06T13:19:57.449Z,5.35
2024-01-06T13:22:43.242Z,4.70
2024-01-06T13:25:29.953Z,3.60
2024-01-06T13:28:15.286Z,3.83
2024-01-06T13:31:01.004Z,3.72
2024-01-06T13:33:47.162Z,4.10
2024-01-06T13:36:32.692Z,3.72
2024-01-06T13:39:23.867Z,5.35
2024-01-06T13:42:09.660Z,4.70
2024-01-06T13:44:55.457Z,5.15
2024-01-06T13:47:45.775Z,5.78
2024-01-06T13:50:31.720Z,9.80
2024-01-06T13:53:17.402Z,6.50
2024-01-06T13:56:04.129Z,13.10
2024-01-06T13:58:49.867Z,6.57
2024-01-06T14:01:36.001Z,9.02
2024-01-06T14:04:24.794Z,7.20
2024-01-06T14:07:11.586Z,9.50
2024-01-06T14:09:57.217Z,6.85
2024-01-06T14:12:43.002Z,3.50
2024-01-06T14:15:28.597Z,3.20
2024-01-06T14:18:17.308Z,3.05
2024-01-06T14:21:03.616Z,3.33
2024-01-06T14:23:50.626Z,6.43
2024-01-06T14:26:36.261Z,5.70
2024-01-06T14:29:22.003Z,12.57
2024-01-06T14:32:08.006Z,14.40
2024-01-06T14:34:53.701Z,7.85
2024-01-06T14:37:39.963Z,7.00
2024-01-06T14:40:25.745Z,12.35
2024-01-06T14:43:11.604Z,8.93
2024-01-06T14:45:57.191Z,7.85
2024-01-06T14:48:43.155Z,8.60
2024-01-06T14:51:29.034Z,6.63
2024-01-06T14:54:14.556Z,4.68
2024-01-06T14:56:59.994Z,6.10
2024-01-06T14:59:45.914Z,7.63
2024-01-06T15:02:31.323Z,6.78
2024-01-06T15:05:17.142Z,6.20
2024-01-06T15:08:02.868Z,5.18
2024-01-06T15:10:48.236Z,4.28
2024-01-06T15:13:33.939Z,5.20
2024-01-06T15:16:19.335Z,4.75
2024-01-06T15:19:05.153Z,5.00
2024-01-06T15:21:51.130Z,4.68
2024-01-06T15:24:36.973Z,4.85
2024-01-06T15:27:22.696Z,6.20
2024-01-06T15:30:09.546Z,4.85
2024-01-06T15:32:55.666Z,3.85
2024-01-06T15:35:41.651Z,3.97
2024-01-06T15:38:28.344Z,4.28
2024-01-06T15:41:13.692Z,3.83
2024-01-06T15:43:59.115Z,3.95
2024-01-06T15:46:44.892Z,4.28
2024-01-06T15:49:30.385Z,4.90
2024-01-06T15:52:15.978Z,5.22
2024-01-06T15:55:01.650Z,5.90
2024-01-06T15:57:47.510Z,5.40
2024-01-06T16:00:35.241Z,5.72
2024-01-06T16:03:22.701Z,5.00
2024-01-06T16:06:08.384Z,5.55
2024-01-06T16:08:55.069Z,8.43
2024-01-06T16:11:40.914Z,9.88
2024-01-06T16:14:26.722Z,9.02
2024-01-06T16:17:12.478Z,8.18
2024-01-06T16:19:58.043Z,6.43
2024-01-06T16:22:43.435Z,5.07
2024-01-06T16:25:29.002Z,4.00
2024-01-06T16:28:14.479Z,4.63
2024-01-06T16:30:59.927Z,4.68
2024-01-06T16:33:46.235Z,4.28
2024-01-06T16:36:31.799Z,4.68
2024-01-06T16:39:17.287Z,5.07
2024-01-06T16:42:02.702Z,5.32
2024-01-06T16:44:48.234Z,5.10
2024-01-06T16:47:33.690Z,5.55
2024-01-06T16:50:19.461Z,6.22
2024-01-06T16:53:05.053Z,6.57
2024-01-06T16:55:50.515Z,5.95
2024-01-06T16:58:39.697Z,6.72
2024-01-06T17:01:25.735Z,6.53
2024-01-06T17:04:13.946Z,8.70
2024-01-06T17:07:00.805Z,8.05
2024-01-06T17:09:47.408Z,7.65
2024-01-06T17:12:33.141Z,6.28
2024-01-06T17:15:20.328Z,6.55
2024-01-06T17:18:08.023Z,8.73
2024-01-06T17:20:53.949Z,12.35
2024-01-06T17:23:39.443Z,11.55
2024-01-06T17:26:25.031Z,9.63
2024-01-06T17:29:11.847Z,16.23
2024-01-06T17:31:57.401Z,22.02
2024-01-06T17:34:43.137Z,18.67
2024-01-06T17:37:28.684Z,15.55
2024-01-06T17:40:14.921Z,14.45
2024-01-06T17:43:00.674Z,17.48
2024-01-06T17:45:46.361Z,17.10
2024-01-06T17:48:32.914Z,17.67
2024-01-06T17:51:20.767Z,18.20
2024-01-06T17:54:06.325Z,15.65
2024-01-06T17:56:51.861Z,15.38
2024-01-06T17:59:37.297Z,14.27
2024-01-06T18:02:22.619Z,16.77
2024-01-06T18:05:10.001Z,14.98
2024-01-06T18:07:55.678Z,13.52
2024-01-06T18:10:41.986Z,8.60
2024-01-06T18:13:27.706Z,8.35
2024-01-06T18:16:15.002Z,7.38
2024-01-06T18:19:01.003Z,7.97
2024-01-06T18:21:46.962Z,6.50
2024-01-06T18:24:32.591Z,6.70
2024-01-06T18:27:18.329Z,7.78
2024-01-06T18:30:04.169Z,7.38
2024-01-06T18:32:49.927Z,7.85
2024-01-06T18:35:35.723Z,8.73
2024-01-06T18:38:21.220Z,10.77
2024-01-06T18:41:06.544Z,11.15
2024-01-06T18:43:51.932Z,12.90
2024-01-06T18:46:38.674Z,14.02
2024-01-06T18:49:24.704Z,13.00
2024-01-06T18:52:11.436Z,11.27
2024-01-06T18:54:57.165Z,11.05
2024-01-06T18:57:42.877Z,10.68
2024-01-06T19:00:28.088Z,10.45
2024-01-06T19:03:14.811Z,9.02
2024-01-06T19:06:00.298Z,8.90
2024-01-06T19:08:45.711Z,10.57
2024-01-06T19:11:31.451Z,10.43
2024-01-06T19:14:17.108Z,10.35
2024-01-06T19:17:03.486Z,9.80
2024-01-06T19:19:49.155Z,9.32
2024-01-06T19:22:34.773Z,8.38
2024-01-06T19:25:20.523Z,8.85
2024-01-06T19:28:07.091Z,9.00
2024-01-06T19:30:54.627Z,9.32
2024-01-06T19:33:40.787Z,8.65
2024-01-06T19:36:26.564Z,8.43
2024-01-06T19:39:11.883Z,7.72
2024-01-06T19:41:57.557Z,5.55
2024-01-06T19:44:44.563Z,5.20
2024-01-06T19:47:30.341Z,5.85
2024-01-06T19:50:16.126Z,5.13
2024-01-06T19:53:01.863Z,5.70
2024-01-06T19:55:47.527Z,5.50
2024-01-06T19:58:34.112Z,7.60
2024-01-06T20:01:19.670Z,7.13
2024-01-06T20:04:05.712Z,8.02
2024-01-06T20:06:51.455Z,6.72
2024-01-06T20:09:37.447Z,8.40
2024-01-06T20:12:23.814Z,7.57
2024-01-06T20:15:11.819Z,7.45
2024-01-06T20:17:58.165Z,9.45
2024-01-06T20:20:43.496Z,10.18
2024-01-06T20:23:28.868Z,6.72
2024-01-06T20:26:14.768Z,5.55
2024-01-06T20:29:00.122Z,5.38
2024-01-06T20:31:46.237Z,5.20
2024-01-06T20:34:32.013Z,4.90
2024-01-06T20:37:17.823Z,5.07
2024-01-06T20:40:03.406Z,5.30
2024-01-06T20:42:48.813Z,6.18
2024-01-06T20:45:34.735Z,6.35
2024-01-06T20:48:20.855Z,5.25
2024-01-06T20:51:08.374Z,6.18
2024-01-06T20:53:54.176Z,6.13
2024-01-06T20:56:40.076Z,8.73
2024-01-06T20:59:29.349Z,8.00
2024-01-06T21:02:17.659Z,7.63
2024-01-06T21:05:06.188Z,6.75
2024-01-06T21:07:51.820Z,7.65
2024-01-06T21:10:37.197Z,6.90
2024-01-06T21:13:22.871Z,6.65
2024-01-06T21:16:08.431Z,6.25
2024-01-06T21:18:54.859Z,6.40
2024-01-06T21:21:44.882Z,4.68
2024-01-06T21:24:30.834Z,4.38
2024-01-06T21:27:16.229Z,4.15
2024-01-06T21:30:05.480Z,2.70
2024-01-06T21:32:54.755Z,3.00
2024-01-06T21:35:40.496Z,2.80
2024-01-06T21:38:25.853Z,2.28
2024-01-06T21:41:11.348Z,4.55
2024-01-06T21:43:56.866Z,2.50
2024-01-06T21:46:42.369Z,2.80
2024-01-06T21:49:27.853Z,2.70
2024-01-06T21:52:13.494Z,4.65
2024-01-06T21:54:58.988Z,2.92
2024-01-06T21:57:44.831Z,2.72
2024-01-06T22:00:30.682Z,2.40
2024-01-06T22:03:16.556Z,3.00
2024-01-06T22:06:02.268Z,2.38
2024-01-06T22:08:47.590Z,2.35
2024-01-06T22:11:37.605Z,2.72
2024-01-06T22:14:24.639Z,2.30
2024-01-06T22:17:10.755Z,2.83
2024-01-06T22:19:56.257Z,5.80
2024-01-06T22:22:41.872Z,3.17
2024-01-06T22:25:27.189Z,2.75
2024-01-06T22:28:14.421Z,2.78
2024-01-06T22:31:00.446Z,2.88
2024-01-06T22:33:46.408Z,8.55
2024-01-06T22:36:32.624Z,4.78
2024-01-06T22:39:18.487Z,2.85
2024-01-06T22:42:05.156Z,2.67
2024-01-06T22:44:50.918Z,2.35
2024-01-06T22:47:36.704Z,3.65
2024-01-06T22:50:22.536Z,2.70
2024-01-06T22:53:08.036Z,3.28
2024-01-06T22:55:53.724Z,3.42
2024-01-06T22:58:39.301Z,2.90
2024-01-06T23:01:25.188Z,2.97
2024-01-06T23:04:11.101Z,4.47
2024-01-06T23:06:56.934Z,10.20
2024-01-06T23:09:42.356Z,20.48
2024-01-06T23:12:27.898Z,4.47
2024-01-06T23:15:13.481Z,23.48
2024-01-06T23:17:59.009Z,14.73
2024-01-06T23:20:44.452Z,18.92
2024-01-06T23:23:29.770Z,7.65
2024-01-06T23:26:15.576Z,8.32
2024-01-06T23:29:01.083Z,6.93
2024-01-06T23:31:46.533Z,5.30
2024-01-06T23:34:38.490Z,7.18
2024-01-06T23:37:28.319Z,3.55
2024-01-06T23:40:14.383Z,21.55
2024-01-06T23:43:03.704Z,13.85
2024-01-06T23:45:51.343Z,19.65
2024-01-06T23:48:36.666Z,5.40
2024-01-06T23:51:22.325Z,7.15
2024-01-06T23:54:08.478Z,4.63
2024-01-06T23:56:53.992Z,3.63
2024-01-06T23:59:42.825Z,2.63
